Aérodrome :
LOGIN :

S'inscrire | Disclaimer

   EN    FR    IT 

 










Légende :    VFR   VFR Marginal   IFR   IFR Intensif   IFR Très Intensif
Visi : 
Plafond : 
>= 8 km
>= 3000ft
5 à 8 km
1000 à 3000 ft
1500m à 5 km
500 à 1000 ft
800 à 1500m
200 à 500 ft
< 800m
< 200 ft
Symboles :   Orages  Brouillard  Fortes neiges  Fortes précipitations  Vent > 20 kt
SIGMETs :   Divers  Orages  Givrage  Turbulence  Onde Orograph.  Cendres Volcan.






- Altitude de l'aérodrome : 24 ft
- Code IATA : SGD


EKSB - Sonderborg

DERNIER METAR :
  • 062220Z AUTO 28007KT 240V300 9999NDV BKN099/// 11/05 Q1021

METARs EXPIRÉS :
  • 062150Z AUTO VRB01KT 9999NDV NCD 09/06 Q1021
  • 062120Z AUTO 25001KT 9999NDV NCD 09/04 Q1020
  • 062050Z AUTO 26001KT 9999NDV NCD 09/05 Q1020
  • 062020Z AUTO 13004KT 9999NDV NCD 08/05 Q1020
  • 061950Z AUTO 13005KT 9999NDV NCD 08/06 Q1020
  • 061920Z AUTO 12004KT 9999NDV NCD 08/05 Q1020

Prévision TAF périmée.



MET'MAP, la Météo Aéronautique d'un coup d'oeil ! - Copyright ORBIFLY Décembre 2007 - Disclaimer

ORBIFLY MET'MAP TEAM :

Programmation & Développement : Alexandra Zaïnal
Sur une idée originale de : Baudouin d'Aumeries
Assistance à la programmation : Marc-Olivier Méhu
Soutien technique & logistique : Manuel Goepfert

Contact : metmap@orbifly.com




SOURCES & CREDITS :

   NOAA